createdAt,value
2023-04-05T00:00:54.372Z,100572.09
2023-04-05T00:03:22.149Z,100563.50
2023-04-05T00:05:50.546Z,100570.34
2023-04-05T00:08:23.746Z,100559.31
2023-04-05T00:10:51.302Z,100566.13
2023-04-05T00:13:20.347Z,100568.47
2023-04-05T00:15:49.160Z,100566.59
2023-04-05T00:18:23.719Z,100566.38
2023-04-05T00:20:52.089Z,100564.84
2023-04-05T00:23:21.353Z,100557.13
2023-04-05T00:25:49.138Z,100556.03
2023-04-05T00:28:16.762Z,100548.75
2023-04-05T00:30:45.837Z,100545.91
2023-04-05T00:33:13.731Z,100552.44
2023-04-05T00:35:41.375Z,100546.38
2023-04-05T00:38:09.079Z,100545.28
2023-04-05T00:40:37.154Z,100547.81
2023-04-05T00:43:04.737Z,100543.72
2023-04-05T00:45:32.782Z,100545.94
2023-04-05T00:48:01.905Z,100530.50
2023-04-05T00:50:30.730Z,100528.53
2023-04-05T00:52:58.585Z,100530.84
2023-04-05T00:55:26.836Z,100539.78
2023-04-05T00:57:55.763Z,100531.44
2023-04-05T01:00:24.481Z,100526.13
2023-04-05T01:02:55.027Z,100531.97
2023-04-05T01:05:33.783Z,100531.75
2023-04-05T01:08:09.099Z,100529.03
2023-04-05T01:10:40.040Z,100521.09
2023-04-05T01:13:08.762Z,100519.97
2023-04-05T01:15:36.535Z,100519.78
2023-04-05T01:18:04.730Z,100515.13
2023-04-05T01:20:40.742Z,100514.06
2023-04-05T01:23:30.918Z,100518.91
2023-04-05T01:26:18.733Z,100511.84
2023-04-05T01:29:01.000Z,100511.84
2023-04-05T01:31:38.287Z,100511.41
2023-04-05T01:34:12.426Z,100505.25
2023-04-05T01:36:42.571Z,100506.59
2023-04-05T01:39:15.166Z,100505.47
2023-04-05T01:41:42.796Z,100507.91
2023-04-05T01:44:10.418Z,100498.66
2023-04-05T01:54:51.300Z,100494.88
2023-04-05T01:57:18.844Z,100494.59
2023-04-05T01:59:46.933Z,100490.25
2023-04-05T02:02:14.512Z,100495.13
2023-04-05T02:04:42.303Z,100499.75
2023-04-05T02:07:10.882Z,100484.31
2023-04-05T02:09:38.488Z,100487.19
2023-04-05T02:12:07.527Z,100481.69
2023-04-05T02:14:35.335Z,100486.50
2023-04-05T02:17:03.103Z,100482.75
2023-04-05T02:19:37.079Z,100484.31
2023-04-05T02:22:04.832Z,100475.94
2023-04-05T02:24:32.414Z,100479.88
2023-04-05T02:27:00.029Z,100475.69
2023-04-05T02:29:29.082Z,100477.59
2023-04-05T02:31:56.780Z,100479.44
2023-04-05T02:34:24.445Z,100477.69
2023-04-05T02:36:52.332Z,100481.78
2023-04-05T02:39:19.895Z,100476.72
2023-04-05T02:41:47.737Z,100478.22
2023-04-05T02:44:15.375Z,100485.63
2023-04-05T02:46:44.303Z,100480.84
2023-04-05T02:49:11.993Z,100482.41
2023-04-05T02:51:39.731Z,100479.78
2023-04-05T02:54:10.198Z,100484.69
2023-04-05T02:56:38.195Z,100478.84
2023-04-05T02:59:13.494Z,100481.63
2023-04-05T03:01:45.131Z,100478.31
2023-04-05T03:04:21.795Z,100481.38
2023-04-05T03:06:52.191Z,100478.41
2023-04-05T03:09:21.337Z,100474.56
2023-04-05T03:11:53.224Z,100474.03
2023-04-05T03:14:20.792Z,100468.88
2023-04-05T03:16:50.525Z,100466.34
2023-04-05T03:19:26.209Z,100473.94
2023-04-05T03:21:59.578Z,100472.81
2023-04-05T03:24:32.740Z,100470.81
2023-04-05T03:27:05.882Z,100470.38
2023-04-05T03:29:39.357Z,100467.50
2023-04-05T03:32:15.242Z,100471.22
2023-04-05T03:34:49.823Z,100470.97
2023-04-05T03:37:19.356Z,100479.34
2023-04-05T03:39:54.222Z,100473.16
2023-04-05T03:42:21.821Z,100464.47
2023-04-05T03:44:53.231Z,100467.66
2023-04-05T03:47:22.559Z,100466.78
2023-04-05T03:49:52.154Z,100468.31
2023-04-05T03:52:19.791Z,100468.75
2023-04-05T03:54:47.319Z,100466.63
2023-04-05T03:57:21.356Z,100463.84
2023-04-05T03:59:50.652Z,100466.91
2023-04-05T04:02:18.767Z,100464.16
2023-04-05T04:04:47.871Z,100456.78
2023-04-05T04:07:16.348Z,100463.75
2023-04-05T04:09:43.993Z,100458.53
2023-04-05T04:12:13.047Z,100462.50
2023-04-05T04:14:49.991Z,100459.38
2023-04-05T04:17:46.843Z,100466.41
2023-04-05T04:20:38.594Z,100466.81
2023-04-05T04:23:14.346Z,100466.56
2023-04-05T04:26:01.585Z,100469.09
2023-04-05T04:28:48.724Z,100468.31
2023-04-05T04:31:27.689Z,100469.75
2023-04-05T04:34:14.556Z,100466.34
2023-04-05T04:37:02.885Z,100467.84
2023-04-05T04:39:51.655Z,100463.69
2023-04-05T04:42:44.302Z,100464.69
2023-04-05T04:45:34.584Z,100463.69
2023-04-05T04:48:09.890Z,100461.56
2023-04-05T04:50:49.673Z,100461.34
2023-04-05T04:53:18.680Z,100472.19
2023-04-05T04:55:49.918Z,100468.38
2023-04-05T04:58:18.015Z,100468.16
2023-04-05T05:00:53.041Z,100472.44
2023-04-05T05:03:22.314Z,100470.69
2023-04-05T05:05:51.185Z,100470.44
2023-04-05T05:08:24.167Z,100470.31
2023-04-05T05:10:53.007Z,100467.69
2023-04-05T05:13:20.718Z,100460.09
2023-04-05T05:15:48.404Z,100465.38
2023-04-05T05:18:16.037Z,100469.44
2023-04-05T05:20:43.789Z,100475.28
2023-04-05T05:23:11.498Z,100478.78
2023-04-05T05:25:40.852Z,100469.66
2023-04-05T05:28:08.427Z,100472.19
2023-04-05T05:30:36.076Z,100477.25
2023-04-05T05:33:03.710Z,100477.50
2023-04-05T05:35:31.407Z,100476.22
2023-04-05T05:37:58.967Z,100479.97
2023-04-05T05:40:27.070Z,100484.25
2023-04-05T05:42:56.120Z,100484.50
2023-04-05T05:45:23.674Z,100487.50
2023-04-05T05:47:51.393Z,100486.84
2023-04-05T05:50:20.537Z,100484.63
2023-04-05T05:52:48.119Z,100485.38
2023-04-05T05:55:15.797Z,100489.91
2023-04-05T05:57:43.382Z,100489.16
2023-04-05T06:00:13.831Z,100493.81
2023-04-05T06:02:42.713Z,100496.78
2023-04-05T06:05:10.625Z,100503.50
2023-04-05T06:07:38.418Z,100502.13
2023-04-05T06:10:06.683Z,100506.31
2023-04-05T06:12:34.663Z,100508.97
2023-04-05T06:15:03.062Z,100513.16
2023-04-05T06:17:34.069Z,100506.78
2023-04-05T06:20:01.754Z,100504.81
2023-04-05T06:22:29.841Z,100506.00
2023-04-05T06:24:57.395Z,100505.91
2023-04-05T06:27:24.996Z,100506.34
2023-04-05T06:29:52.576Z,100498.19
2023-04-05T06:32:20.632Z,100496.69
2023-04-05T06:34:49.768Z,100500.53
2023-04-05T06:37:17.318Z,100493.16
2023-04-05T06:39:44.868Z,100497.78
2023-04-05T06:42:12.391Z,100495.00
2023-04-05T06:44:46.074Z,100489.03
2023-04-05T06:47:14.442Z,100492.91
2023-04-05T06:49:42.077Z,100496.72
2023-04-05T06:52:10.934Z,100492.31
2023-04-05T06:54:39.408Z,100493.94
2023-04-05T06:57:06.947Z,100493.47
2023-04-05T06:59:34.798Z,100492.13
2023-04-05T07:02:02.702Z,100488.75
2023-04-05T07:04:33.163Z,100490.75
2023-04-05T07:07:02.108Z,100489.16
2023-04-05T07:09:32.620Z,100491.41
2023-04-05T07:12:01.286Z,100484.88
2023-04-05T07:14:30.657Z,100495.41
2023-04-05T07:16:58.311Z,100486.22
2023-04-05T07:19:26.200Z,100486.44
2023-04-05T07:21:53.842Z,100482.56
2023-04-05T07:24:21.716Z,100480.31
2023-04-05T07:26:50.910Z,100484.94
2023-04-05T07:29:18.694Z,100485.50
2023-04-05T07:31:46.313Z,100483.47
2023-04-05T07:34:14.366Z,100484.16
2023-04-05T07:36:41.979Z,100486.28
2023-04-05T07:39:09.644Z,100481.00
2023-04-05T07:41:38.007Z,100481.94
2023-04-05T07:44:07.245Z,100491.91
2023-04-05T07:46:35.768Z,100492.88
2023-04-05T07:49:03.375Z,100486.41
2023-04-05T07:51:31.451Z,100481.50
2023-04-05T07:54:01.777Z,100479.72
2023-04-05T07:56:30.786Z,100482.81
2023-04-05T07:58:58.877Z,100484.41
2023-04-05T08:01:28.486Z,100487.63
2023-04-05T08:03:57.381Z,100489.03
2023-04-05T08:06:27.014Z,100493.81
2023-04-05T08:08:54.549Z,100484.25
2023-04-05T08:11:22.624Z,100485.22
2023-04-05T08:13:50.861Z,100493.41
2023-04-05T08:16:18.460Z,100490.94
2023-04-05T08:18:47.339Z,100489.59
2023-04-05T08:21:14.938Z,100491.88
2023-04-05T08:23:42.668Z,100491.09
2023-04-05T08:26:10.707Z,100492.41
2023-04-05T08:28:38.266Z,100490.09
2023-04-05T08:31:06.034Z,100480.56
2023-04-05T08:33:34.785Z,100477.59
2023-04-05T08:36:06.837Z,100481.25
2023-04-05T08:38:34.497Z,100483.59
2023-04-05T08:41:09.573Z,100481.28
2023-04-05T08:43:48.391Z,100476.22
2023-04-05T08:46:18.671Z,100480.81
2023-04-05T08:48:46.350Z,100478.13
2023-04-05T08:51:19.956Z,100485.47
2023-04-05T08:53:47.602Z,100477.84
2023-04-05T08:56:17.826Z,100483.66
2023-04-05T08:58:50.554Z,100486.91
2023-04-05T09:01:18.200Z,100481.09
2023-04-05T09:03:48.647Z,100486.28
2023-04-05T09:06:18.551Z,100489.63
2023-04-05T09:08:46.264Z,100487.00
2023-04-05T09:11:14.596Z,100475.88
2023-04-05T09:13:42.153Z,100472.72
2023-04-05T09:16:10.896Z,100477.19
2023-04-05T09:18:38.423Z,100480.34
2023-04-05T09:21:06.623Z,100472.81
2023-04-05T09:23:36.479Z,100474.50
2023-04-05T09:26:18.486Z,100472.50
2023-04-05T09:28:46.151Z,100471.03
2023-04-05T09:31:33.392Z,100457.28
2023-04-05T09:34:02.962Z,100464.88
2023-04-05T09:36:32.845Z,100467.59
2023-04-05T09:39:09.002Z,100463.28
2023-04-05T09:41:37.630Z,100458.94
2023-04-05T09:44:05.934Z,100458.94
2023-04-05T09:46:35.387Z,100458.03
2023-04-05T09:49:03.841Z,100454.56
2023-04-05T09:51:36.262Z,100460.22
2023-04-05T09:54:08.393Z,100457.06
2023-04-05T09:56:37.318Z,100452.53
2023-04-05T09:59:09.550Z,100455.38
2023-04-05T10:01:39.039Z,100451.97
2023-04-05T10:04:08.400Z,100453.47
2023-04-05T10:06:38.144Z,100454.31
2023-04-05T10:09:08.605Z,100449.44
2023-04-05T10:11:37.370Z,100451.44
2023-04-05T10:14:06.224Z,100445.03
2023-04-05T10:16:39.320Z,100445.16
2023-04-05T10:19:17.168Z,100444.28
2023-04-05T10:21:47.358Z,100431.47
2023-04-05T10:24:23.756Z,100429.72
2023-04-05T10:27:00.940Z,100436.97
2023-04-05T10:29:39.238Z,100432.91
2023-04-05T10:32:13.758Z,100430.13
2023-04-05T10:34:46.501Z,100437.50
2023-04-05T10:37:29.142Z,100427.03
2023-04-05T10:40:04.125Z,100421.50
2023-04-05T10:42:41.346Z,100414.56
2023-04-05T10:45:12.198Z,100428.31
2023-04-05T10:47:44.099Z,100416.13
2023-04-05T10:50:17.429Z,100415.44
2023-04-05T10:52:45.668Z,100419.03
2023-04-05T10:55:16.918Z,100423.03
2023-04-05T10:57:46.223Z,100412.75
2023-04-05T11:00:15.528Z,100410.66
2023-04-05T11:02:43.565Z,100405.59
2023-04-05T11:05:33.492Z,100411.16
2023-04-05T11:08:04.953Z,100402.44
2023-04-05T11:10:36.215Z,100407.31
2023-04-05T11:13:09.069Z,100396.03
2023-04-05T11:15:37.143Z,100397.06
2023-04-05T11:18:12.104Z,100393.03
2023-04-05T11:20:51.494Z,100387.97
2023-04-05T11:23:21.069Z,100384.03
2023-04-05T11:25:54.357Z,100393.22
2023-04-05T11:31:14.031Z,100386.84
2023-04-05T11:33:59.879Z,100375.84
2023-04-05T11:36:33.590Z,100381.53
2023-04-05T11:39:27.109Z,100380.81
2023-04-05T11:42:01.172Z,100371.84
2023-04-05T11:44:29.302Z,100360.59
2023-04-05T11:46:56.895Z,100365.97
2023-04-05T11:49:25.260Z,100362.53
2023-04-05T11:51:54.117Z,100367.03
2023-04-05T11:54:32.271Z,100363.69
2023-04-05T11:57:02.006Z,100362.66
2023-04-05T11:59:34.296Z,100364.91
2023-04-05T12:02:03.983Z,100359.13
2023-04-05T12:04:31.790Z,100356.19
2023-04-05T12:07:12.926Z,100351.19
2023-04-05T12:10:00.507Z,100347.78
2023-04-05T12:12:33.645Z,100347.38
2023-04-05T12:15:01.693Z,100347.69
2023-04-05T12:17:46.694Z,100345.22
2023-04-05T12:20:16.297Z,100340.88
2023-04-05T12:22:45.416Z,100340.88
2023-04-05T12:25:14.407Z,100343.63
2023-04-05T12:27:43.808Z,100336.72
2023-04-05T12:30:17.698Z,100325.41
2023-04-05T12:32:47.498Z,100333.97
2023-04-05T12:35:17.345Z,100335.81
2023-04-05T12:37:45.623Z,100338.56
2023-04-05T12:40:14.048Z,100322.06
2023-04-05T12:42:42.945Z,100315.09
2023-04-05T12:45:12.894Z,100324.66
2023-04-05T12:47:51.579Z,100311.66
2023-04-05T12:50:20.745Z,100317.72
2023-04-05T12:52:58.888Z,100312.44
2023-04-05T12:55:28.071Z,100306.34
2023-04-05T12:57:59.395Z,100313.13
2023-04-05T13:00:28.394Z,100310.72
2023-04-05T13:02:57.858Z,100310.69
2023-04-05T13:05:27.072Z,100308.13
2023-04-05T13:07:54.727Z,100303.47
2023-04-05T13:10:24.922Z,100299.34
2023-04-05T13:12:52.991Z,100309.56
2023-04-05T13:15:22.482Z,100301.13
2023-04-05T13:17:52.009Z,100296.75
2023-04-05T13:20:19.829Z,100297.03
2023-04-05T13:22:47.838Z,100292.50
2023-04-05T13:25:16.027Z,100285.78
2023-04-05T13:27:44.773Z,100278.28
2023-04-05T13:30:12.985Z,100283.72
2023-04-05T13:32:42.340Z,100279.97
2023-04-05T13:35:10.968Z,100270.72
2023-04-05T13:37:38.940Z,100277.59
2023-04-05T13:40:08.045Z,100280.19
2023-04-05T13:42:35.705Z,100278.75
2023-04-05T13:45:03.446Z,100266.97
2023-04-05T13:47:30.978Z,100262.25
2023-04-05T13:49:59.931Z,100265.19
2023-04-05T13:52:27.504Z,100262.75
2023-04-05T13:55:02.137Z,100260.34
2023-04-05T13:57:31.312Z,100264.66
2023-04-05T13:59:59.038Z,100250.22
2023-04-05T14:02:27.247Z,100247.81
2023-04-05T14:04:55.460Z,100246.06
2023-04-05T14:07:25.202Z,100240.84
2023-04-05T14:09:52.827Z,100246.09
2023-04-05T14:12:20.427Z,100240.75
2023-04-05T14:14:48.097Z,100236.97
2023-04-05T14:17:15.769Z,100244.41
2023-04-05T14:19:43.464Z,100234.81
2023-04-05T14:22:11.209Z,100234.19
2023-04-05T14:24:40.258Z,100234.50
2023-04-05T14:27:08.018Z,100237.16
2023-04-05T14:29:35.727Z,100231.97
2023-04-05T14:32:03.521Z,100235.56
2023-04-05T14:34:31.553Z,100218.84
2023-04-05T14:37:00.772Z,100226.53
2023-04-05T14:39:28.449Z,100226.00
2023-04-05T14:41:57.637Z,100219.97
2023-04-05T14:44:26.789Z,100211.44
2023-04-05T14:46:54.450Z,100217.84
2023-04-05T14:49:22.279Z,100218.59
2023-04-05T14:51:50.060Z,100219.75
2023-04-05T14:54:18.410Z,100210.34
2023-04-05T14:56:46.131Z,100205.31
2023-04-05T14:59:15.292Z,100209.00
2023-04-05T15:01:45.381Z,100199.53
2023-04-05T15:04:13.305Z,100200.84
2023-04-05T15:06:42.207Z,100204.84
2023-04-05T15:09:09.880Z,100200.38
2023-04-05T15:11:39.237Z,100200.53
2023-04-05T15:14:08.561Z,100201.81
2023-04-05T15:16:40.540Z,100201.25
2023-04-05T15:19:08.202Z,100200.88
2023-04-05T15:21:36.101Z,100198.53
2023-04-05T15:24:03.778Z,100196.25
2023-04-05T15:26:31.474Z,100192.31
2023-04-05T15:28:59.093Z,100192.94
2023-04-05T15:31:27.044Z,100190.25
2023-04-05T15:33:56.651Z,100191.19
2023-04-05T15:36:25.750Z,100181.53
2023-04-05T15:38:53.471Z,100188.00
2023-04-05T15:41:21.130Z,100179.97
2023-04-05T15:43:48.855Z,100171.41
2023-04-05T15:46:16.552Z,100178.19
2023-04-05T15:48:44.710Z,100172.59
2023-04-05T15:51:13.866Z,100176.53
2023-04-05T15:53:41.640Z,100175.41
2023-04-05T15:56:09.321Z,100173.53
2023-04-05T15:58:37.588Z,100169.66
2023-04-05T16:01:05.979Z,100179.59
2023-04-05T16:03:34.014Z,100174.09
2023-04-05T16:06:01.771Z,100172.47
2023-04-05T16:08:30.971Z,100172.66
2023-04-05T16:10:58.597Z,100175.69
2023-04-05T16:13:26.553Z,100171.75
2023-04-05T16:15:54.412Z,100176.75
2023-04-05T16:18:23.816Z,100169.16
2023-04-05T16:20:51.924Z,100170.84
2023-04-05T16:23:19.722Z,100174.69
2023-04-05T16:25:48.869Z,100172.38
2023-04-05T16:28:16.564Z,100175.03
2023-04-05T16:30:47.126Z,100170.78
2023-04-05T16:33:15.618Z,100166.44
2023-04-05T16:35:43.328Z,100176.47
2023-04-05T16:38:10.961Z,100171.13
2023-04-05T16:40:38.673Z,100172.25
2023-04-05T16:43:07.723Z,100170.53
2023-04-05T16:45:36.410Z,100164.09
2023-04-05T16:48:04.361Z,100162.66
2023-04-05T16:50:32.275Z,100166.38
2023-04-05T16:53:00.452Z,100164.97
2023-04-05T16:55:28.187Z,100166.66
2023-04-05T16:57:56.906Z,100170.84
2023-04-05T17:00:26.073Z,100170.91
2023-04-05T17:02:54.498Z,100170.13
2023-04-05T17:05:22.539Z,100170.53
2023-04-05T17:07:50.169Z,100169.25
2023-04-05T17:10:18.029Z,100163.09
2023-04-05T17:12:46.533Z,100168.28
2023-04-05T17:15:14.502Z,100167.06
2023-04-05T17:17:43.565Z,100161.53
2023-04-05T17:20:12.668Z,100162.25
2023-04-05T17:22:40.958Z,100167.53
2023-04-05T17:25:09.494Z,100163.53
2023-04-05T17:27:37.315Z,100176.63
2023-04-05T17:30:05.905Z,100175.63
2023-04-05T17:32:34.711Z,100170.97
2023-04-05T17:35:03.758Z,100166.09
2023-04-05T17:37:31.682Z,100167.53
2023-04-05T17:39:59.417Z,100169.59
2023-04-05T17:42:27.291Z,100177.84
2023-04-05T17:44:56.725Z,100174.47
2023-04-05T17:47:24.581Z,100171.00
2023-04-05T17:49:52.356Z,100176.97
2023-04-05T17:52:22.541Z,100176.50
2023-04-05T17:54:52.270Z,100173.09
2023-04-05T17:57:20.208Z,100174.97
2023-04-05T17:59:47.893Z,100185.59
2023-04-05T18:02:15.645Z,100181.22
2023-04-05T18:04:43.406Z,100177.13
2023-04-05T18:07:11.091Z,100177.44
2023-04-05T18:09:42.154Z,100180.81
2023-04-05T18:12:09.948Z,100185.13
2023-04-05T18:14:37.809Z,100186.16
2023-04-05T18:17:06.864Z,100189.22
2023-04-05T18:19:34.732Z,100188.47
2023-04-05T18:22:02.545Z,100190.66
2023-04-05T18:24:31.005Z,100191.28
2023-04-05T18:27:00.107Z,100195.19
2023-04-05T18:29:30.453Z,100189.50
2023-04-05T18:31:58.294Z,100202.88
2023-04-05T18:34:26.273Z,100199.81
2023-04-05T18:36:53.991Z,100207.69
2023-04-05T18:39:21.779Z,100210.31
2023-04-05T18:41:49.390Z,100208.03
2023-04-05T18:44:18.457Z,100209.78
2023-04-05T18:46:46.145Z,100213.44
2023-04-05T18:49:15.721Z,100219.56
2023-04-05T18:51:43.524Z,100219.00
2023-04-05T18:54:11.262Z,100220.19
2023-04-05T18:56:38.919Z,100218.84
2023-04-05T18:59:06.859Z,100222.38
2023-04-05T19:01:36.211Z,100221.19
2023-04-05T19:04:04.730Z,100229.22
2023-04-05T19:06:32.574Z,100234.66
2023-04-05T19:09:00.234Z,100230.41
2023-04-05T19:11:28.031Z,100231.31
2023-04-05T19:13:55.974Z,100232.22
2023-04-05T19:16:23.648Z,100237.94
2023-04-05T19:18:53.527Z,100236.75
2023-04-05T19:21:21.321Z,100246.53
2023-04-05T19:23:49.672Z,100248.72
2023-04-05T19:26:17.273Z,100249.47
2023-04-05T19:28:44.956Z,100249.00
2023-04-05T19:31:12.786Z,100247.38
2023-04-05T19:33:40.661Z,100245.03
2023-04-05T19:36:09.719Z,100253.34
2023-04-05T19:38:37.506Z,100249.13
2023-04-05T19:41:05.218Z,100259.84
2023-04-05T19:43:33.400Z,100246.91
2023-04-05T19:46:01.378Z,100248.44
2023-04-05T19:48:37.421Z,100250.78
2023-04-05T19:51:07.032Z,100248.88
2023-04-05T19:53:47.924Z,100254.50
2023-04-05T19:56:18.553Z,100253.38
2023-04-05T19:58:48.505Z,100255.78
2023-04-05T20:01:30.659Z,100247.81
2023-04-05T20:03:58.626Z,100260.47
2023-04-05T20:06:27.081Z,100256.81
2023-04-05T20:09:02.369Z,100253.16
2023-04-05T20:11:30.942Z,100263.94
2023-04-05T20:14:01.725Z,100266.25
2023-04-05T20:16:33.064Z,100266.25
2023-04-05T20:19:03.334Z,100260.81
2023-04-05T20:21:31.210Z,100265.47
2023-04-05T20:24:01.168Z,100266.50
2023-04-05T20:26:31.325Z,100260.84
2023-04-05T20:29:04.243Z,100261.09
2023-04-05T20:31:33.535Z,100255.25
2023-04-05T20:34:10.561Z,100265.47
2023-04-05T20:36:39.628Z,100260.91
2023-04-05T20:39:08.950Z,100261.34
2023-04-05T20:41:37.075Z,100256.53
2023-04-05T20:44:04.939Z,100259.78
2023-04-05T20:46:32.763Z,100257.66
2023-04-05T20:49:00.738Z,100261.53
2023-04-05T20:51:28.427Z,100261.28
2023-04-05T20:53:56.354Z,100255.84
2023-04-05T20:56:25.499Z,100258.88
2023-04-05T20:58:54.456Z,100259.56
2023-04-05T21:01:22.334Z,100260.09
2023-04-05T21:03:50.237Z,100256.44
2023-04-05T21:06:18.008Z,100257.84
2023-04-05T21:08:46.200Z,100255.84
2023-04-05T21:11:13.929Z,100255.75
2023-04-05T21:13:43.391Z,100262.28
2023-04-05T21:16:11.404Z,100264.75
2023-04-05T21:18:39.217Z,100267.22
2023-04-05T21:21:07.128Z,100262.13
2023-04-05T21:23:35.168Z,100254.63
2023-04-05T21:26:04.122Z,100255.59
2023-04-05T21:28:32.064Z,100265.63
2023-04-05T21:31:01.568Z,100262.72
2023-04-05T21:33:29.435Z,100263.16
2023-04-05T21:35:57.215Z,100264.75
2023-04-05T21:38:25.070Z,100264.56
2023-04-05T21:40:52.825Z,100263.34
2023-04-05T21:43:20.591Z,100256.88
2023-04-05T21:45:48.326Z,100263.34
2023-04-05T21:48:17.490Z,100259.66
2023-04-05T21:50:45.252Z,100261.41
2023-04-05T21:53:14.424Z,100271.44
2023-04-05T21:55:42.239Z,100268.44
2023-04-05T21:58:09.969Z,100265.53
2023-04-05T22:00:37.795Z,100269.47
2023-04-05T22:03:05.600Z,100266.50
2023-04-05T22:05:38.394Z,100262.81
2023-04-05T22:08:07.589Z,100251.41
2023-04-05T22:10:36.313Z,100257.50
2023-04-05T22:13:04.088Z,100262.75
2023-04-05T22:15:31.821Z,100262.19
2023-04-05T22:17:59.915Z,100261.81
2023-04-05T22:20:27.701Z,100260.06
2023-04-05T22:22:57.003Z,100257.25
2023-04-05T22:25:26.324Z,100263.03
2023-04-05T22:27:59.361Z,100262.84
2023-04-05T22:30:28.224Z,100258.97
2023-04-05T22:32:56.327Z,100257.00
2023-04-05T22:35:24.189Z,100258.56
2023-04-05T22:37:51.918Z,100258.38
2023-04-05T22:40:26.264Z,100254.69
2023-04-05T22:42:54.181Z,100260.16
2023-04-05T22:45:21.871Z,100259.97
2023-04-05T22:47:49.584Z,100256.44
2023-04-05T22:50:17.471Z,100257.06
2023-04-05T22:52:45.960Z,100254.41
2023-04-05T22:55:13.945Z,100254.41
2023-04-05T22:57:43.002Z,100246.69
2023-04-05T23:00:12.248Z,100251.41
2023-04-05T23:02:40.012Z,100247.91
2023-04-05T23:05:08.640Z,100249.44
2023-04-05T23:07:36.396Z,100242.41
2023-04-05T23:10:04.535Z,100251.31
2023-04-05T23:12:32.300Z,100238.53
2023-04-05T23:15:01.315Z,100243.41
2023-04-05T23:17:29.109Z,100250.22
2023-04-05T23:19:56.892Z,100245.75
2023-04-05T23:22:24.621Z,100241.06
2023-04-05T23:24:52.526Z,100242.44
2023-04-05T23:27:20.989Z,100245.75
2023-04-05T23:29:48.753Z,100240.28
2023-04-05T23:32:17.837Z,100244.41
2023-04-05T23:34:45.610Z,100241.66
2023-04-05T23:37:13.299Z,100243.41
2023-04-05T23:39:41.085Z,100236.38
2023-04-05T23:42:09.319Z,100241.44
2023-04-05T23:44:38.651Z,100248.09
2023-04-05T23:47:06.482Z,100234.44
2023-04-05T23:49:35.640Z,100242.31
2023-04-05T23:52:03.452Z,100244.75
2023-04-05T23:54:31.254Z,100243.22
2023-04-05T23:56:59.151Z,100245.63
2023-04-05T23:59:26.951Z,100242.81
